Pagrindinis puslapis
METAR-TAF:

METAR-TAF

Oro uostai :

Turino oro uostas

Turinas, Italija

platuma: 45-13N, ilguma: 007-39E, Aukštis: 301 m

Dabartinis oras

Ataskaita buvo paskelbta 36 minutes, ne 02:20 UTC
Vėjas 5 kt iš Pietvakarių
Temperatūra 4°C
Drėgmė 100%
Slėgis 1022 hPa
Matomumas: 6000 m
Su prošvaistėmis ne aukštis 12000 ft

METAR: LIMF 180220Z 22005KT 6000 BKN120 04/04 Q1022

Laikas: 03:56 (02:56 UTC)

Prognozė

Ataskaita buvo paskelbta 3 valandos ir 56 minutes, ne 23:00 UTC
Prognozė galioja nuo 18 metu 00 UTC su 18 metu 24 UTC
Vėjas 5 kt nuo kintamojo kryptimis
Matomumas: 7000 m
Išsisklaidę debesys ne aukštis 3000 ft
Su prošvaistėmis ne aukštis 6000 ft
Laikinai
nuo 18 metu 00 UTC su 18 metu 03 UTC
lietus

TAF: LIMF 172300Z 1800/1824 VRB05KT 7000 SCT030 BKN060 TEMPO 1800/1803 RA

Orai ataskaitas ir orų prognozės (METAR, TAF).

turimą stotys yra geltonos ir raudonos taškus žemėlapyje.

Perkelti pele per norėdami pamatyti stoties vardą.

Tada spustelėkite, norėdami matyti oro stebėjimo ir prognozės.

Norėdami pakeisti žemėlapį: spustelėkite ant žalios mygtukų su juodo kryžiaus žemyn,; žalią mygtuką su brūkšneliu, jei norite nutolinti; arba žalių rodyklių gretimoms žemėlapius.


METAR-TAF: